sensor_id;sensor_type;location;lat;lon;timestamp;P1;durP1;ratioP1;P2;durP2;ratioP2
69716;SDS011;67420;46.144;19.666;2024-01-07T00:04:45;5.57;;;3.63;;
69716;SDS011;67420;46.144;19.666;2024-01-07T00:14:47;5.22;;;3.85;;
69716;SDS011;67420;46.144;19.666;2024-01-07T00:24:49;5.22;;;4.03;;
69716;SDS011;67420;46.144;19.666;2024-01-07T00:34:52;4.82;;;3.65;;
69716;SDS011;67420;46.144;19.666;2024-01-07T00:44:56;4.65;;;3.60;;
69716;SDS011;67420;46.144;19.666;2024-01-07T00:54:58;4.78;;;3.95;;
69716;SDS011;67420;46.144;19.666;2024-01-07T01:05:02;4.97;;;3.45;;
69716;SDS011;67420;46.144;19.666;2024-01-07T01:15:04;5.28;;;3.38;;
69716;SDS011;67420;46.144;19.666;2024-01-07T01:25:06;5.13;;;3.38;;
69716;SDS011;67420;46.144;19.666;2024-01-07T01:35:09;4.28;;;3.25;;
69716;SDS011;67420;46.144;19.666;2024-01-07T01:45:11;4.28;;;3.17;;
69716;SDS011;67420;46.144;19.666;2024-01-07T01:55:13;4.25;;;3.10;;
69716;SDS011;67420;46.144;19.666;2024-01-07T02:05:16;3.42;;;2.63;;
69716;SDS011;67420;46.144;19.666;2024-01-07T02:15:18;4.15;;;2.88;;
69716;SDS011;67420;46.144;19.666;2024-01-07T02:25:21;3.72;;;3.03;;
69716;SDS011;67420;46.144;19.666;2024-01-07T02:35:23;3.40;;;2.90;;
69716;SDS011;67420;46.144;19.666;2024-01-07T02:45:26;3.53;;;2.75;;
69716;SDS011;67420;46.144;19.666;2024-01-07T02:55:28;3.70;;;2.85;;
69716;SDS011;67420;46.144;19.666;2024-01-07T03:05:30;3.65;;;2.65;;
69716;SDS011;67420;46.144;19.666;2024-01-07T03:15:34;3.58;;;2.55;;
69716;SDS011;67420;46.144;19.666;2024-01-07T03:25:36;2.80;;;2.45;;
69716;SDS011;67420;46.144;19.666;2024-01-07T03:35:38;3.90;;;2.55;;
69716;SDS011;67420;46.144;19.666;2024-01-07T03:45:41;2.40;;;2.20;;
69716;SDS011;67420;46.144;19.666;2024-01-07T03:55:44;3.92;;;2.58;;
69716;SDS011;67420;46.144;19.666;2024-01-07T04:05:47;2.88;;;2.33;;
69716;SDS011;67420;46.144;19.666;2024-01-07T04:15:49;2.90;;;2.30;;
69716;SDS011;67420;46.144;19.666;2024-01-07T04:25:51;3.13;;;2.28;;
69716;SDS011;67420;46.144;19.666;2024-01-07T04:35:53;2.85;;;2.40;;
69716;SDS011;67420;46.144;19.666;2024-01-07T04:45:59;3.05;;;2.20;;
69716;SDS011;67420;46.144;19.666;2024-01-07T04:56:02;2.35;;;2.15;;
69716;SDS011;67420;46.144;19.666;2024-01-07T05:06:04;3.17;;;2.25;;
69716;SDS011;67420;46.144;19.666;2024-01-07T05:16:06;3.88;;;2.13;;
69716;SDS011;67420;46.144;19.666;2024-01-07T05:26:09;2.65;;;2.10;;
69716;SDS011;67420;46.144;19.666;2024-01-07T05:36:11;3.47;;;2.10;;
69716;SDS011;67420;46.144;19.666;2024-01-07T05:46:14;2.90;;;1.80;;
69716;SDS011;67420;46.144;19.666;2024-01-07T05:56:16;2.67;;;2.10;;
69716;SDS011;67420;46.144;19.666;2024-01-07T06:06:18;2.58;;;2.10;;
69716;SDS011;67420;46.144;19.666;2024-01-07T06:16:21;2.78;;;2.10;;
69716;SDS011;67420;46.144;19.666;2024-01-07T06:26:23;2.30;;;1.80;;
69716;SDS011;67420;46.144;19.666;2024-01-07T06:36:25;2.38;;;2.13;;
69716;SDS011;67420;46.144;19.666;2024-01-07T06:46:27;3.53;;;2.00;;
69716;SDS011;67420;46.144;19.666;2024-01-07T06:56:30;2.95;;;2.20;;
69716;SDS011;67420;46.144;19.666;2024-01-07T07:06:33;2.95;;;2.20;;
69716;SDS011;67420;46.144;19.666;2024-01-07T07:16:36;2.35;;;1.83;;
69716;SDS011;67420;46.144;19.666;2024-01-07T07:26:38;2.78;;;2.20;;
69716;SDS011;67420;46.144;19.666;2024-01-07T07:36:42;2.50;;;2.05;;
69716;SDS011;67420;46.144;19.666;2024-01-07T07:46:46;3.03;;;2.30;;
69716;SDS011;67420;46.144;19.666;2024-01-07T07:56:48;9.25;;;2.30;;
69716;SDS011;67420;46.144;19.666;2024-01-07T08:06:51;3.20;;;2.90;;
69716;SDS011;67420;46.144;19.666;2024-01-07T08:16:54;3.10;;;2.80;;
69716;SDS011;67420;46.144;19.666;2024-01-07T08:26:56;4.18;;;3.30;;
69716;SDS011;67420;46.144;19.666;2024-01-07T08:36:58;4.47;;;3.47;;
69716;SDS011;67420;46.144;19.666;2024-01-07T08:47:01;4.28;;;3.60;;
69716;SDS011;67420;46.144;19.666;2024-01-07T08:57:04;5.72;;;4.43;;
69716;SDS011;67420;46.144;19.666;2024-01-07T09:07:06;6.82;;;5.03;;
69716;SDS011;67420;46.144;19.666;2024-01-07T09:17:08;7.38;;;4.50;;
69716;SDS011;67420;46.144;19.666;2024-01-07T09:27:10;5.78;;;4.75;;
69716;SDS011;67420;46.144;19.666;2024-01-07T09:37:13;5.93;;;4.82;;
69716;SDS011;67420;46.144;19.666;2024-01-07T09:47:18;8.02;;;5.60;;
69716;SDS011;67420;46.144;19.666;2024-01-07T09:57:21;7.78;;;5.10;;
69716;SDS011;67420;46.144;19.666;2024-01-07T10:07:24;7.60;;;5.68;;
69716;SDS011;67420;46.144;19.666;2024-01-07T10:17:27;6.53;;;5.10;;
69716;SDS011;67420;46.144;19.666;2024-01-07T10:27:29;5.97;;;5.03;;
69716;SDS011;67420;46.144;19.666;2024-01-07T10:37:35;6.28;;;4.70;;
69716;SDS011;67420;46.144;19.666;2024-01-07T10:47:37;6.13;;;4.93;;
69716;SDS011;67420;46.144;19.666;2024-01-07T10:57:46;5.03;;;4.38;;
69716;SDS011;67420;46.144;19.666;2024-01-07T11:08:34;4.70;;;3.70;;
69716;SDS011;67420;46.144;19.666;2024-01-07T11:18:22;5.07;;;4.15;;
69716;SDS011;67420;46.144;19.666;2024-01-07T11:39:00;4.53;;;3.72;;
69716;SDS011;67420;46.144;19.666;2024-01-07T11:49:03;4.28;;;3.40;;
69716;SDS011;67420;46.144;19.666;2024-01-07T11:59:07;3.63;;;3.33;;
69716;SDS011;67420;46.144;19.666;2024-01-07T12:09:11;3.30;;;2.80;;
69716;SDS011;67420;46.144;19.666;2024-01-07T12:19:15;3.33;;;2.70;;
69716;SDS011;67420;46.144;19.666;2024-01-07T12:29:18;2.50;;;2.30;;
69716;SDS011;67420;46.144;19.666;2024-01-07T12:39:21;2.58;;;2.28;;
69716;SDS011;67420;46.144;19.666;2024-01-07T12:49:28;2.83;;;2.53;;
69716;SDS011;67420;46.144;19.666;2024-01-07T12:59:31;2.67;;;2.45;;
69716;SDS011;67420;46.144;19.666;2024-01-07T13:09:33;2.58;;;2.38;;
69716;SDS011;67420;46.144;19.666;2024-01-07T13:19:35;2.17;;;1.98;;
69716;SDS011;67420;46.144;19.666;2024-01-07T13:29:38;2.33;;;2.03;;
69716;SDS011;67420;46.144;19.666;2024-01-07T13:39:40;2.15;;;1.95;;
69716;SDS011;67420;46.144;19.666;2024-01-07T13:49:43;2.10;;;1.75;;
69716;SDS011;67420;46.144;19.666;2024-01-07T13:59:48;2.15;;;1.63;;
69716;SDS011;67420;46.144;19.666;2024-01-07T14:09:50;3.58;;;1.50;;
69716;SDS011;67420;46.144;19.666;2024-01-07T14:19:53;1.65;;;1.40;;
69716;SDS011;67420;46.144;19.666;2024-01-07T14:29:56;2.80;;;1.50;;
69716;SDS011;67420;46.144;19.666;2024-01-07T14:39:59;1.50;;;1.30;;
69716;SDS011;67420;46.144;19.666;2024-01-07T14:50:02;1.83;;;1.35;;
69716;SDS011;67420;46.144;19.666;2024-01-07T15:00:08;1.23;;;1.13;;
69716;SDS011;67420;46.144;19.666;2024-01-07T15:10:11;1.20;;;1.10;;
69716;SDS011;67420;46.144;19.666;2024-01-07T15:20:16;1.38;;;1.25;;
69716;SDS011;67420;46.144;19.666;2024-01-07T15:30:18;1.67;;;1.45;;
69716;SDS011;67420;46.144;19.666;2024-01-07T15:40:21;1.58;;;1.48;;
69716;SDS011;67420;46.144;19.666;2024-01-07T15:50:23;1.65;;;1.40;;
69716;SDS011;67420;46.144;19.666;2024-01-07T16:00:25;1.88;;;1.50;;
69716;SDS011;67420;46.144;19.666;2024-01-07T16:10:27;1.30;;;1.20;;
69716;SDS011;67420;46.144;19.666;2024-01-07T16:20:30;1.55;;;1.45;;
69716;SDS011;67420;46.144;19.666;2024-01-07T16:30:32;1.60;;;1.30;;
69716;SDS011;67420;46.144;19.666;2024-01-07T16:40:35;1.60;;;1.40;;
69716;SDS011;67420;46.144;19.666;2024-01-07T16:50:38;3.97;;;1.50;;
69716;SDS011;67420;46.144;19.666;2024-01-07T17:00:40;1.45;;;1.17;;
69716;SDS011;67420;46.144;19.666;2024-01-07T17:10:45;6.68;;;1.50;;
69716;SDS011;67420;46.144;19.666;2024-01-07T17:20:48;1.55;;;1.10;;
69716;SDS011;67420;46.144;19.666;2024-01-07T17:30:50;2.63;;;1.30;;
69716;SDS011;67420;46.144;19.666;2024-01-07T17:40:53;4.00;;;1.30;;
69716;SDS011;67420;46.144;19.666;2024-01-07T17:50:55;4.28;;;1.38;;
69716;SDS011;67420;46.144;19.666;2024-01-07T18:01:05;2.50;;;1.17;;
69716;SDS011;67420;46.144;19.666;2024-01-07T18:11:11;11.18;;;1.70;;
69716;SDS011;67420;46.144;19.666;2024-01-07T18:21:13;7.45;;;1.95;;
69716;SDS011;67420;46.144;19.666;2024-01-07T18:31:16;11.25;;;2.67;;
69716;SDS011;67420;46.144;19.666;2024-01-07T18:41:19;9.10;;;2.20;;
69716;SDS011;67420;46.144;19.666;2024-01-07T18:51:24;5.72;;;2.35;;
69716;SDS011;67420;46.144;19.666;2024-01-07T19:01:26;3.70;;;2.05;;
69716;SDS011;67420;46.144;19.666;2024-01-07T19:11:29;11.75;;;2.45;;
69716;SDS011;67420;46.144;19.666;2024-01-07T19:21:31;4.90;;;2.17;;
69716;SDS011;67420;46.144;19.666;2024-01-07T19:31:33;6.43;;;2.33;;
69716;SDS011;67420;46.144;19.666;2024-01-07T19:41:36;5.43;;;2.25;;
69716;SDS011;67420;46.144;19.666;2024-01-07T19:51:39;3.63;;;2.30;;
69716;SDS011;67420;46.144;19.666;2024-01-07T20:01:41;4.30;;;2.30;;
69716;SDS011;67420;46.144;19.666;2024-01-07T20:11:43;5.75;;;2.40;;
69716;SDS011;67420;46.144;19.666;2024-01-07T20:21:45;3.50;;;2.35;;
69716;SDS011;67420;46.144;19.666;2024-01-07T20:31:49;5.70;;;2.38;;
69716;SDS011;67420;46.144;19.666;2024-01-07T20:41:51;4.78;;;2.78;;
69716;SDS011;67420;46.144;19.666;2024-01-07T20:51:54;5.43;;;3.03;;
69716;SDS011;67420;46.144;19.666;2024-01-07T21:01:56;6.18;;;3.20;;
69716;SDS011;67420;46.144;19.666;2024-01-07T21:11:58;6.55;;;3.08;;
69716;SDS011;67420;46.144;19.666;2024-01-07T21:22:02;4.53;;;3.00;;
69716;SDS011;67420;46.144;19.666;2024-01-07T21:32:04;5.85;;;2.97;;
69716;SDS011;67420;46.144;19.666;2024-01-07T21:42:06;4.75;;;2.90;;
69716;SDS011;67420;46.144;19.666;2024-01-07T21:52:08;4.72;;;3.30;;
69716;SDS011;67420;46.144;19.666;2024-01-07T22:02:10;5.05;;;3.08;;
69716;SDS011;67420;46.144;19.666;2024-01-07T22:12:13;4.05;;;3.58;;
69716;SDS011;67420;46.144;19.666;2024-01-07T22:22:15;4.40;;;3.13;;
69716;SDS011;67420;46.144;19.666;2024-01-07T22:32:18;4.15;;;3.35;;
69716;SDS011;67420;46.144;19.666;2024-01-07T22:42:20;5.50;;;3.42;;
69716;SDS011;67420;46.144;19.666;2024-01-07T22:52:22;4.55;;;3.70;;
69716;SDS011;67420;46.144;19.666;2024-01-07T23:02:25;4.65;;;3.40;;
69716;SDS011;67420;46.144;19.666;2024-01-07T23:12:27;4.53;;;3.63;;
69716;SDS011;67420;46.144;19.666;2024-01-07T23:22:29;5.75;;;4.30;;
69716;SDS011;67420;46.144;19.666;2024-01-07T23:32:31;4.93;;;3.83;;
69716;SDS011;67420;46.144;19.666;2024-01-07T23:42:34;5.03;;;3.83;;
69716;SDS011;67420;46.144;19.666;2024-01-07T23:52:39;5.18;;;4.07;;
